createdAt,value
2023-11-30T00:01:16.891Z,892.2
2023-11-30T00:03:00.587Z,892.3
2023-11-30T00:04:44.274Z,891.3
2023-11-30T00:06:28.065Z,889
2023-11-30T00:08:11.777Z,882
2023-11-30T00:09:55.385Z,879.3
2023-11-30T00:11:39.083Z,873.6
2023-11-30T00:13:22.830Z,870.6
2023-11-30T00:15:06.521Z,866.7
2023-11-30T00:16:50.288Z,862.3
2023-11-30T00:18:33.893Z,857.2
2023-11-30T00:20:17.570Z,859.3
2023-11-30T00:22:01.298Z,857.3
2023-11-30T00:23:45.137Z,858.2
2023-11-30T00:25:28.703Z,857.7
2023-11-30T00:27:12.504Z,853.6
2023-11-30T00:28:56.082Z,852.5
2023-11-30T00:30:40.014Z,846.9
2023-11-30T00:32:23.529Z,843.3
2023-11-30T00:34:07.303Z,839
2023-11-30T00:35:50.908Z,834.8
2023-11-30T00:37:34.618Z,834.9
2023-11-30T00:39:18.317Z,834.4
2023-11-30T00:41:02.021Z,832.2
2023-11-30T00:42:45.757Z,830.7
2023-11-30T00:44:29.415Z,823.9
2023-11-30T00:46:13.239Z,820
2023-11-30T00:47:56.918Z,821.5
2023-11-30T00:49:40.536Z,816.3
2023-11-30T00:51:24.213Z,814.1
2023-11-30T00:53:07.912Z,811.1
2023-11-30T00:54:51.657Z,811.5
2023-11-30T00:56:35.350Z,808.9
2023-11-30T00:58:19.137Z,806
2023-11-30T01:00:02.730Z,802.5
2023-11-30T01:01:46.454Z,801.2
2023-11-30T01:03:30.147Z,798.6
2023-11-30T01:05:13.836Z,798.6
2023-11-30T01:06:57.597Z,799.2
2023-11-30T01:08:41.246Z,796.2
2023-11-30T01:10:25.031Z,792
2023-11-30T01:12:08.646Z,791.6
2023-11-30T01:13:52.352Z,790.3
2023-11-30T01:15:36.072Z,785.9
2023-11-30T01:17:19.929Z,778.4
2023-11-30T01:19:03.458Z,777.3
2023-11-30T01:20:47.149Z,775.2
2023-11-30T01:22:30.968Z,775.1
2023-11-30T01:24:14.589Z,777.3
2023-11-30T01:25:58.277Z,780.8
2023-11-30T01:27:41.961Z,778.4
2023-11-30T01:29:25.662Z,774
2023-11-30T01:31:09.370Z,773.7
2023-11-30T01:32:53.113Z,771.1
2023-11-30T01:34:36.776Z,767.1
2023-11-30T01:36:20.557Z,767.1
2023-11-30T01:38:04.167Z,763.1
2023-11-30T01:39:47.877Z,759.3
2023-11-30T01:41:31.575Z,758.6
2023-11-30T01:43:15.289Z,757.2
2023-11-30T01:44:58.968Z,756.8
2023-11-30T01:46:42.685Z,757.2
2023-11-30T01:48:26.561Z,756.9
2023-11-30T01:50:10.240Z,756.3
2023-11-30T01:51:53.793Z,754.7
2023-11-30T01:53:37.516Z,752.5
2023-11-30T01:55:21.187Z,748.3
2023-11-30T01:57:04.994Z,742.2
2023-11-30T01:58:48.596Z,741.7
2023-11-30T02:00:32.272Z,741.6
2023-11-30T02:02:15.974Z,735.5
2023-11-30T02:03:59.718Z,735.7
2023-11-30T02:05:43.399Z,735.4
2023-11-30T02:07:27.086Z,732.1
2023-11-30T02:09:10.795Z,730.4
2023-11-30T02:10:54.518Z,728.5
2023-11-30T02:12:38.210Z,728.1
2023-11-30T02:14:21.916Z,725.6
2023-11-30T02:16:05.638Z,721.2
2023-11-30T02:17:49.438Z,721
2023-11-30T02:19:33.149Z,723.4
2023-11-30T02:21:16.722Z,724.8
2023-11-30T02:23:00.497Z,722.1
2023-11-30T02:24:44.196Z,720.1
2023-11-30T02:26:27.814Z,721
2023-11-30T02:28:11.513Z,718.7
2023-11-30T02:29:55.232Z,717.8
2023-11-30T02:31:38.926Z,715.3
2023-11-30T02:33:22.619Z,712.1
2023-11-30T02:35:06.321Z,710.1
2023-11-30T02:36:50.038Z,710
2023-11-30T02:38:33.710Z,710.7
2023-11-30T02:40:17.463Z,710.2
2023-11-30T02:42:01.126Z,709.1
2023-11-30T02:43:44.840Z,707.4
2023-11-30T02:45:28.545Z,705
2023-11-30T02:47:12.243Z,703.2
2023-11-30T02:48:55.944Z,701.9
2023-11-30T02:50:39.657Z,701.6
2023-11-30T02:52:23.415Z,700.9
2023-11-30T02:55:50.793Z,692.9
2023-11-30T02:57:34.451Z,689.9
2023-11-30T02:59:18.148Z,689
2023-11-30T03:01:01.871Z,685.8
2023-11-30T03:02:45.541Z,684.5
2023-11-30T03:04:29.263Z,682.4
2023-11-30T03:06:13.004Z,677.7
2023-11-30T03:07:56.660Z,674.6
2023-11-30T03:09:40.340Z,671.6
2023-11-30T03:11:24.207Z,673.3
2023-11-30T03:13:07.789Z,674
2023-11-30T03:14:51.640Z,675.4
2023-11-30T03:16:35.300Z,672.4
2023-11-30T03:18:18.859Z,668
2023-11-30T03:20:02.835Z,666.9
2023-11-30T03:21:46.247Z,665.4
2023-11-30T03:23:30.023Z,663.1
2023-11-30T03:25:13.699Z,661.5
2023-11-30T03:26:57.370Z,660.9
2023-11-30T03:28:41.257Z,657.3
2023-11-30T03:30:24.880Z,656.2
2023-11-30T03:32:08.485Z,655
2023-11-30T03:33:52.164Z,654.2
2023-11-30T03:35:35.901Z,652.7
2023-11-30T03:37:19.593Z,650.3
2023-11-30T03:39:03.289Z,650.5
2023-11-30T03:40:47.218Z,650.6
2023-11-30T03:42:30.835Z,647
2023-11-30T03:44:14.471Z,647.4
2023-11-30T03:45:58.078Z,647.9
2023-11-30T03:47:41.797Z,649.9
2023-11-30T03:49:25.499Z,647.9
2023-11-30T03:51:09.197Z,645.5
2023-11-30T03:52:52.898Z,642.7
2023-11-30T03:54:36.748Z,641.2
2023-11-30T03:56:20.507Z,639.4
2023-11-30T03:58:04.067Z,640.5
2023-11-30T03:59:47.805Z,642.4
2023-11-30T04:01:31.513Z,642.4
2023-11-30T04:03:15.089Z,641.3
2023-11-30T04:04:58.822Z,639.3
2023-11-30T04:06:42.505Z,636.9
2023-11-30T04:08:26.273Z,636.5
2023-11-30T04:10:10.082Z,636.5
2023-11-30T04:11:53.699Z,636.5
2023-11-30T04:13:37.420Z,634.8
2023-11-30T04:15:21.013Z,636.1
2023-11-30T04:17:04.788Z,636.3
2023-11-30T04:18:48.415Z,635.7
2023-11-30T04:20:32.192Z,631.7
2023-11-30T04:22:15.878Z,626.8
2023-11-30T04:23:59.629Z,624.8
2023-11-30T04:25:43.319Z,624.9
2023-11-30T04:27:26.972Z,622.8
2023-11-30T04:29:10.826Z,620.4
2023-11-30T04:30:54.327Z,620.4
2023-11-30T04:32:38.091Z,620.4
2023-11-30T04:34:21.793Z,616.4
2023-11-30T04:36:05.675Z,616.8
2023-11-30T04:37:51.262Z,621.6
2023-11-30T04:39:32.908Z,623.8
2023-11-30T04:41:16.607Z,623.2
2023-11-30T04:43:00.242Z,621.9
2023-11-30T04:44:44.091Z,617.9
2023-11-30T04:46:27.696Z,617.3
2023-11-30T04:48:11.523Z,615.5
2023-11-30T04:49:55.080Z,610.4
2023-11-30T04:51:38.845Z,608.4
2023-11-30T04:53:22.614Z,609.5
2023-11-30T04:55:06.241Z,610.6
2023-11-30T04:56:49.901Z,611.6
2023-11-30T04:58:33.536Z,611.5
2023-11-30T05:00:18.400Z,610.5
2023-11-30T05:02:01.015Z,609
2023-11-30T05:03:44.640Z,609.4
2023-11-30T05:05:28.601Z,606.2
2023-11-30T05:07:12.257Z,603.8
2023-11-30T05:08:55.896Z,602.7
2023-11-30T05:10:39.710Z,600.8
2023-11-30T05:12:23.238Z,598.9
2023-11-30T05:14:06.936Z,598.7
2023-11-30T05:15:50.556Z,597.9
2023-11-30T05:17:34.365Z,598.2
2023-11-30T05:19:18.050Z,595.4
2023-11-30T05:21:01.718Z,594.5
2023-11-30T05:22:45.504Z,592.3
2023-11-30T05:24:29.073Z,590.9
2023-11-30T05:26:12.915Z,591
2023-11-30T05:27:56.467Z,592.1
2023-11-30T05:29:40.347Z,589.8
2023-11-30T05:31:23.924Z,588.5
2023-11-30T05:33:07.594Z,588.9
2023-11-30T05:34:51.292Z,589.3
2023-11-30T05:36:34.981Z,589
2023-11-30T05:38:18.682Z,589.2
2023-11-30T05:40:02.392Z,587.3
2023-11-30T05:41:46.127Z,588.2
2023-11-30T05:43:29.773Z,588.6
2023-11-30T05:45:13.497Z,587
2023-11-30T05:46:57.175Z,583.8
2023-11-30T05:48:40.936Z,582.4
2023-11-30T05:50:24.617Z,578.5
2023-11-30T05:52:08.286Z,577
2023-11-30T05:53:51.977Z,577.4
2023-11-30T05:55:35.704Z,577.1
2023-11-30T05:57:19.422Z,576.2
2023-11-30T05:59:03.119Z,576.5
2023-11-30T06:00:46.851Z,577.2
2023-11-30T06:02:30.511Z,573
2023-11-30T06:04:14.225Z,569.3
2023-11-30T06:05:57.919Z,567.2
2023-11-30T06:07:41.704Z,567.4
2023-11-30T06:09:25.306Z,567
2023-11-30T06:11:09.005Z,568
2023-11-30T06:12:52.749Z,568.7
2023-11-30T06:16:20.167Z,570.5
2023-11-30T06:18:03.822Z,567.3
2023-11-30T06:19:47.511Z,567.6
2023-11-30T06:21:31.344Z,568.8
2023-11-30T06:23:14.941Z,573.1
2023-11-30T06:24:58.728Z,574
2023-11-30T06:26:42.333Z,572.1
2023-11-30T06:28:26.102Z,569.7
2023-11-30T06:30:09.836Z,567.1
2023-11-30T06:31:53.483Z,566.6
2023-11-30T06:33:37.132Z,566
2023-11-30T06:35:20.835Z,562.9
2023-11-30T06:37:04.574Z,562.2
2023-11-30T06:38:48.246Z,562.7
2023-11-30T06:40:31.993Z,562.9
2023-11-30T06:42:15.646Z,562.4
2023-11-30T06:43:59.347Z,560.2
2023-11-30T06:45:43.044Z,560.2
2023-11-30T06:47:26.729Z,561.4
2023-11-30T06:49:10.427Z,560.4
2023-11-30T06:50:54.336Z,560.9
2023-11-30T06:52:37.935Z,561.2
2023-11-30T06:54:21.575Z,560.9
2023-11-30T06:56:05.327Z,557.5
2023-11-30T06:57:49.066Z,555.1
2023-11-30T06:59:32.740Z,554.3
2023-11-30T07:01:16.356Z,555.4
2023-11-30T07:03:00.066Z,554.9
2023-11-30T07:04:43.837Z,557
2023-11-30T07:06:27.511Z,558.6
2023-11-30T07:08:11.330Z,563.2
2023-11-30T07:09:55.259Z,562.9
2023-11-30T07:11:38.553Z,562.6
2023-11-30T07:13:22.520Z,559.9
2023-11-30T07:15:06.202Z,559.5
2023-11-30T07:16:49.766Z,560.6
2023-11-30T07:18:33.370Z,559.6
2023-11-30T07:20:17.233Z,559.4
2023-11-30T07:22:00.794Z,558.1
2023-11-30T07:23:44.594Z,555.9
2023-11-30T07:25:28.154Z,554.7
2023-11-30T07:27:11.910Z,555.2
2023-11-30T07:28:55.569Z,555
2023-11-30T07:30:39.288Z,554.4
2023-11-30T07:32:22.995Z,553.9
2023-11-30T07:34:06.698Z,554.4
2023-11-30T07:35:50.413Z,555.5
2023-11-30T07:37:34.225Z,556.9
2023-11-30T07:39:17.777Z,560
2023-11-30T07:41:01.547Z,568.2
2023-11-30T07:42:45.256Z,589.4
2023-11-30T07:44:28.922Z,592.7
2023-11-30T07:46:12.585Z,597.1
2023-11-30T07:47:56.328Z,603.4
2023-11-30T07:49:39.997Z,605.6
2023-11-30T07:51:23.802Z,603.4
2023-11-30T07:53:07.422Z,601.4
2023-11-30T07:54:51.140Z,600.9
2023-11-30T07:56:35.047Z,601.5
2023-11-30T07:58:18.503Z,601.6
2023-11-30T08:00:02.186Z,599.8
2023-11-30T08:01:45.894Z,600.4
2023-11-30T08:03:29.775Z,600.1
2023-11-30T08:05:13.301Z,598
2023-11-30T08:06:57.097Z,595.8
2023-11-30T08:08:40.840Z,595.2
2023-11-30T08:10:24.391Z,595.3
2023-11-30T08:12:08.318Z,595.3
2023-11-30T08:13:52.100Z,596.5
2023-11-30T08:15:35.781Z,597.9
2023-11-30T08:17:19.374Z,603.2
2023-11-30T08:19:02.966Z,603.9
2023-11-30T08:20:46.745Z,607.4
2023-11-30T08:22:30.471Z,611.5
2023-11-30T08:24:14.016Z,612.9
2023-11-30T08:25:57.792Z,613.7
2023-11-30T08:27:41.548Z,614.5
2023-11-30T08:29:25.158Z,620.4
2023-11-30T08:31:08.919Z,622.4
2023-11-30T08:32:52.528Z,623.8
2023-11-30T08:34:36.390Z,620.7
2023-11-30T08:36:19.968Z,620.2
2023-11-30T08:38:03.824Z,616.9
2023-11-30T08:39:47.330Z,616.5
2023-11-30T08:41:31.080Z,616.8
2023-11-30T08:43:14.740Z,617
2023-11-30T08:44:58.728Z,615.1
2023-11-30T08:46:42.140Z,615.9
2023-11-30T08:48:25.923Z,617.3
2023-11-30T08:50:09.577Z,617.1
2023-11-30T08:51:53.245Z,615.6
2023-11-30T08:53:36.942Z,614.5
2023-11-30T08:55:20.655Z,612.7
2023-11-30T08:57:04.373Z,614.7
2023-11-30T08:58:48.150Z,610.2
2023-11-30T09:00:31.760Z,607.3
2023-11-30T09:02:15.486Z,605.1
2023-11-30T09:03:59.185Z,606.4
2023-11-30T09:05:43.085Z,607.2
2023-11-30T09:07:26.705Z,608.5
2023-11-30T09:09:10.348Z,611.8
2023-11-30T09:10:54.189Z,618
2023-11-30T09:12:37.842Z,622.5
2023-11-30T09:14:21.628Z,627.7
2023-11-30T09:16:05.211Z,634.8
2023-11-30T09:17:48.926Z,651.3
2023-11-30T09:19:32.749Z,657.5
2023-11-30T09:21:16.297Z,660.7
2023-11-30T09:23:00.100Z,660.4
2023-11-30T09:24:43.709Z,661
2023-11-30T09:26:27.345Z,661.4
2023-11-30T09:28:11.226Z,667
2023-11-30T09:29:55.009Z,689.6
2023-11-30T09:31:38.489Z,712.7
2023-11-30T09:33:22.213Z,726.8
2023-11-30T09:35:05.878Z,731.6
2023-11-30T09:36:49.482Z,736.1
2023-11-30T09:38:33.269Z,739.9
2023-11-30T09:40:17.121Z,745.8
2023-11-30T09:42:00.632Z,743.5
2023-11-30T09:43:44.569Z,736.7
2023-11-30T09:45:27.995Z,741.4
2023-11-30T09:47:11.856Z,748.6
2023-11-30T09:48:55.462Z,746.9
2023-11-30T09:50:39.269Z,742.7
2023-11-30T09:52:22.905Z,739.2
2023-11-30T09:54:06.494Z,733.6
2023-11-30T09:55:50.189Z,730.7
2023-11-30T09:57:33.970Z,727.3
2023-11-30T09:59:17.703Z,731.9
2023-11-30T10:01:01.295Z,735.1
2023-11-30T10:02:44.995Z,738.4
2023-11-30T10:04:28.703Z,740.5
2023-11-30T10:06:12.469Z,738.6
2023-11-30T10:07:56.128Z,737.7
2023-11-30T10:09:39.800Z,736.8
2023-11-30T10:11:23.679Z,737.5
2023-11-30T10:13:07.269Z,738.8
2023-11-30T10:14:51.203Z,740.8
2023-11-30T10:16:34.671Z,744.7
2023-11-30T10:18:18.497Z,746.8
2023-11-30T10:20:02.162Z,744.4
2023-11-30T10:21:45.816Z,736.9
2023-11-30T10:23:29.560Z,731
2023-11-30T10:25:13.211Z,730.3
2023-11-30T10:26:57.008Z,726.3
2023-11-30T10:28:40.635Z,724.6
2023-11-30T10:30:24.210Z,725.2
2023-11-30T10:32:07.935Z,727
2023-11-30T10:33:51.648Z,728.3
2023-11-30T10:35:35.505Z,726
2023-11-30T10:37:19.156Z,727.7
2023-11-30T10:39:03.025Z,727.1
2023-11-30T10:40:46.538Z,727.3
2023-11-30T10:42:30.281Z,727.7
2023-11-30T10:44:14.034Z,728.4
2023-11-30T10:45:57.562Z,728
2023-11-30T10:47:41.359Z,728.2
2023-11-30T10:49:25.214Z,727.1
2023-11-30T10:51:08.824Z,729
2023-11-30T10:52:52.494Z,729
2023-11-30T10:54:36.032Z,730.5
2023-11-30T10:56:19.807Z,730.7
2023-11-30T10:58:03.453Z,731.5
2023-11-30T10:59:47.368Z,730.4
2023-11-30T11:01:30.861Z,731.7
2023-11-30T11:03:14.690Z,735.9
2023-11-30T11:04:58.520Z,741.6
2023-11-30T11:06:42.065Z,744.2
2023-11-30T11:08:25.913Z,749.5
2023-11-30T11:10:09.548Z,761.7
2023-11-30T11:11:53.323Z,772
2023-11-30T11:13:36.949Z,780.4
2023-11-30T11:15:20.565Z,782.4
2023-11-30T11:17:04.389Z,786.9
2023-11-30T11:18:47.885Z,792.7
2023-11-30T11:20:31.886Z,796.8
2023-11-30T11:22:15.469Z,797.1
2023-11-30T11:23:59.288Z,794.7
2023-11-30T11:25:42.805Z,792.2
2023-11-30T11:27:26.587Z,792.8
2023-11-30T11:29:10.437Z,802.4
2023-11-30T11:30:54.018Z,811.4
2023-11-30T11:34:21.252Z,818.7
2023-11-30T11:36:05.140Z,825.6
2023-11-30T11:37:48.737Z,836
2023-11-30T11:39:32.446Z,851.6
2023-11-30T11:41:16.092Z,861.3
2023-11-30T11:42:59.969Z,868.4
2023-11-30T11:44:43.454Z,877.9
2023-11-30T11:46:27.224Z,892.7
2023-11-30T11:48:10.939Z,900.3
2023-11-30T11:49:54.675Z,900.6
2023-11-30T11:51:38.373Z,898.6
2023-11-30T11:53:21.911Z,888
2023-11-30T11:55:05.625Z,873.7
2023-11-30T11:56:49.495Z,862.7
2023-11-30T11:58:33.230Z,855.4
2023-11-30T12:00:16.833Z,849.9
2023-11-30T12:02:00.517Z,846.7
2023-11-30T12:03:44.138Z,846.2
2023-11-30T12:05:27.847Z,845.9
2023-11-30T12:08:55.495Z,840.1
2023-11-30T12:10:39.152Z,837.4
2023-11-30T12:12:22.721Z,837
2023-11-30T12:14:06.455Z,836.4
2023-11-30T12:15:50.200Z,836.4
2023-11-30T12:17:33.944Z,837.5
2023-11-30T12:19:17.543Z,832.9
2023-11-30T12:21:01.176Z,830.8
2023-11-30T12:22:44.856Z,832
2023-11-30T12:24:28.557Z,834.6
2023-11-30T12:26:12.369Z,833.4
2023-11-30T12:27:55.972Z,837.7
2023-11-30T12:29:39.662Z,839.6
2023-11-30T12:31:23.486Z,840.9
2023-11-30T12:33:07.288Z,840.1
2023-11-30T12:34:51.005Z,840.3
2023-11-30T12:36:34.946Z,840.9
2023-11-30T12:38:18.488Z,838.7
2023-11-30T12:40:02.031Z,836.1
2023-11-30T12:41:45.896Z,831.1
2023-11-30T12:43:29.580Z,829.3
2023-11-30T12:45:12.985Z,828.1
2023-11-30T12:46:57.001Z,830.1
2023-11-30T12:48:40.784Z,829.9
2023-11-30T12:50:24.285Z,829.7
2023-11-30T12:52:08.130Z,831.3
2023-11-30T12:53:51.776Z,837.5
2023-11-30T12:55:35.497Z,842.1
2023-11-30T12:57:19.262Z,839.9
2023-11-30T12:59:02.935Z,841
2023-11-30T13:00:46.583Z,839.8
2023-11-30T13:02:30.296Z,837.3
2023-11-30T13:04:13.910Z,835.7
2023-11-30T13:05:57.632Z,837.2
2023-11-30T13:07:41.401Z,835.1
2023-11-30T13:09:24.965Z,831.8
2023-11-30T13:11:08.537Z,831.6
2023-11-30T13:12:52.264Z,835.6
2023-11-30T13:14:35.927Z,841.2
2023-11-30T13:16:19.920Z,845.7
2023-11-30T13:18:03.684Z,849.7
2023-11-30T13:19:47.319Z,854.8
2023-11-30T13:21:30.940Z,856
2023-11-30T13:23:14.629Z,860
2023-11-30T13:24:58.434Z,859.9
2023-11-30T13:26:42.172Z,862.9
2023-11-30T13:28:25.540Z,866.3
2023-11-30T13:30:09.498Z,868.7
2023-11-30T13:31:53.309Z,871.4
2023-11-30T13:33:36.665Z,871.7
2023-11-30T13:35:20.777Z,878.1
2023-11-30T13:37:04.410Z,878.4
2023-11-30T13:38:48.148Z,881
2023-11-30T13:40:31.705Z,886.1
2023-11-30T13:42:15.571Z,885.4
2023-11-30T13:43:58.856Z,882
2023-11-30T13:45:43.006Z,875.7
2023-11-30T13:47:26.608Z,877
2023-11-30T13:49:10.249Z,883.7
2023-11-30T13:50:53.926Z,883.4
2023-11-30T13:52:37.719Z,884.2
2023-11-30T13:54:21.420Z,886.9
2023-11-30T13:56:04.966Z,891.4
2023-11-30T13:57:48.623Z,890.8
2023-11-30T13:59:32.568Z,890.9
2023-11-30T14:01:16.267Z,897.4
2023-11-30T14:02:59.677Z,905
2023-11-30T14:04:43.657Z,910.2
2023-11-30T14:06:27.254Z,910.4
2023-11-30T14:08:11.000Z,910.1
2023-11-30T14:09:54.754Z,911.8
2023-11-30T14:11:38.350Z,912.5
2023-11-30T14:13:22.100Z,912.9
2023-11-30T14:15:05.852Z,910.3
2023-11-30T14:16:49.574Z,908
2023-11-30T14:18:33.200Z,906.1
2023-11-30T14:22:00.568Z,904.2
2023-11-30T14:23:44.287Z,905.2
2023-11-30T14:25:28.025Z,899.3
2023-11-30T14:27:11.599Z,900.8
2023-11-30T14:28:55.429Z,904.1
2023-11-30T14:30:39.191Z,905.8
2023-11-30T14:32:22.771Z,905.1
2023-11-30T14:34:06.497Z,902.7
2023-11-30T14:35:50.206Z,898.1
2023-11-30T14:37:33.949Z,902.8
2023-11-30T14:39:17.576Z,914.8
2023-11-30T14:41:01.176Z,923.3
2023-11-30T14:42:45.034Z,925.8
2023-11-30T14:44:28.808Z,931.7
2023-11-30T14:46:12.374Z,936.5
2023-11-30T14:47:56.173Z,946.4
2023-11-30T14:49:39.840Z,1042.4
2023-11-30T14:51:23.302Z,1048.3
2023-11-30T14:53:07.262Z,1024.9
2023-11-30T14:54:50.925Z,1015.1
2023-11-30T14:56:34.624Z,1000.3
2023-11-30T14:58:18.247Z,988.9
2023-11-30T15:00:02.165Z,974
2023-11-30T15:01:45.773Z,972.7
2023-11-30T15:03:29.446Z,973.2
2023-11-30T15:05:13.199Z,970.5
2023-11-30T15:06:56.541Z,970.6
2023-11-30T15:08:40.593Z,968.2
2023-11-30T15:10:24.268Z,966.9
2023-11-30T15:12:07.916Z,968.1
2023-11-30T15:13:51.737Z,966.3
2023-11-30T15:15:35.043Z,966.4
2023-11-30T15:17:19.084Z,1023.6
2023-11-30T15:19:02.801Z,1066.4
2023-11-30T15:20:46.536Z,1065.8
2023-11-30T15:22:30.179Z,1067
2023-11-30T15:24:13.833Z,1067
2023-11-30T15:25:57.571Z,1068.9
2023-11-30T15:27:41.203Z,1073.1
2023-11-30T15:29:24.793Z,1066.6
2023-11-30T15:31:08.688Z,1074.7
2023-11-30T15:32:52.071Z,1077
2023-11-30T15:34:35.957Z,1073.4
2023-11-30T15:36:19.795Z,1067.3
2023-11-30T15:38:03.532Z,1070.2
2023-11-30T15:39:47.269Z,1072.6
2023-11-30T15:41:30.908Z,1072.8
2023-11-30T15:43:14.601Z,1070.8
2023-11-30T15:44:58.332Z,1074.7
2023-11-30T15:46:41.996Z,1079
2023-11-30T15:48:25.754Z,1075.3
2023-11-30T15:50:09.406Z,1072.4
2023-11-30T15:51:53.194Z,1070
2023-11-30T15:53:36.786Z,1076.8
2023-11-30T15:55:20.505Z,1077.8
2023-11-30T15:57:04.215Z,1078.2
2023-11-30T15:58:47.887Z,1083.5
2023-11-30T16:00:31.425Z,1087.2
2023-11-30T16:02:15.240Z,1085.4
2023-11-30T16:03:59.124Z,1088.7
2023-11-30T16:05:42.822Z,1091.2
2023-11-30T16:07:26.471Z,1094.7
2023-11-30T16:09:10.099Z,1096.5
2023-11-30T16:10:53.860Z,1100.8
2023-11-30T16:12:37.536Z,1104.1
2023-11-30T16:14:21.262Z,1103.5
2023-11-30T16:16:04.793Z,1111.2
2023-11-30T16:17:48.662Z,1121.3
2023-11-30T16:19:32.031Z,1123.4
2023-11-30T16:21:15.929Z,1126.2
2023-11-30T16:22:59.765Z,1115.3
2023-11-30T16:24:43.513Z,1106
2023-11-30T16:26:26.842Z,1108.4
2023-11-30T16:28:10.831Z,1157.4
2023-11-30T16:29:54.583Z,1149
2023-11-30T16:31:38.180Z,1151.1
2023-11-30T16:33:21.969Z,1152
2023-11-30T16:35:05.489Z,1153.3
2023-11-30T16:36:49.240Z,1156.3
2023-11-30T16:38:33.089Z,1160.2
2023-11-30T16:40:16.786Z,1166.1
2023-11-30T16:42:00.472Z,1165.4
2023-11-30T16:43:43.871Z,1159.3
2023-11-30T16:45:27.752Z,1153.9
2023-11-30T16:47:11.525Z,1147
2023-11-30T16:48:55.172Z,1149.9
2023-11-30T16:50:38.989Z,1147.1
2023-11-30T16:52:22.704Z,1145.4
2023-11-30T16:54:06.378Z,1145.9
2023-11-30T16:55:49.776Z,1147
2023-11-30T16:57:33.739Z,1147.2
2023-11-30T16:59:17.462Z,1144.5
2023-11-30T17:01:01.243Z,1145.5
2023-11-30T17:02:44.708Z,1145.8
2023-11-30T17:04:28.561Z,1148.5
2023-11-30T17:06:12.279Z,1148.3
2023-11-30T17:07:55.981Z,1148.5
2023-11-30T17:09:39.764Z,1148.4
2023-11-30T17:11:23.421Z,1150.1
2023-11-30T17:13:07.195Z,1145.4
2023-11-30T17:14:50.807Z,1141.5
2023-11-30T17:16:34.448Z,1144
2023-11-30T17:18:18.276Z,1145.4
2023-11-30T17:20:01.921Z,1146.8
2023-11-30T17:21:45.630Z,1149.3
2023-11-30T17:23:29.336Z,1150.9
2023-11-30T17:25:12.988Z,1151.9
2023-11-30T17:26:56.683Z,1153.4
2023-11-30T17:28:40.448Z,1153.7
2023-11-30T17:30:24.149Z,1150.3
2023-11-30T17:32:07.540Z,1154
2023-11-30T17:33:51.319Z,1156.6
2023-11-30T17:35:35.219Z,1155.8
2023-11-30T17:37:18.950Z,1154.3
2023-11-30T17:39:02.418Z,1151.2
2023-11-30T17:40:46.353Z,1148.7
2023-11-30T17:42:30.101Z,1151.6
2023-11-30T17:44:13.743Z,1153.9
2023-11-30T17:45:57.478Z,1159
2023-11-30T17:47:41.220Z,1163
2023-11-30T17:49:24.770Z,1171
2023-11-30T17:51:08.462Z,1175.8
2023-11-30T17:52:52.191Z,1172.8
2023-11-30T17:54:35.900Z,1159.3
2023-11-30T17:56:19.676Z,1149.9
2023-11-30T17:58:03.297Z,1143.7
2023-11-30T17:59:46.779Z,1133.7
2023-11-30T18:01:30.748Z,1128.6
2023-11-30T18:03:14.477Z,1128.1
2023-11-30T18:04:57.904Z,1130.5
2023-11-30T18:06:41.587Z,1130.2
2023-11-30T18:08:25.286Z,1128.7
2023-11-30T18:10:09.062Z,1130.4
2023-11-30T18:11:52.696Z,1128.2
2023-11-30T18:13:36.396Z,1126.8
2023-11-30T18:15:20.089Z,1128.4
2023-11-30T18:17:03.799Z,1126.8
2023-11-30T18:18:47.498Z,1130.5
2023-11-30T18:20:31.208Z,1134
2023-11-30T18:22:14.956Z,1134.9
2023-11-30T18:23:58.629Z,1137.2
2023-11-30T18:25:42.321Z,1142
2023-11-30T18:27:26.012Z,1145.1
2023-11-30T18:29:09.726Z,1151.3
2023-11-30T18:30:53.469Z,1157.8
2023-11-30T18:32:37.118Z,1162.5
2023-11-30T18:34:20.943Z,1166.9
2023-11-30T18:36:04.681Z,1169.6
2023-11-30T18:37:48.357Z,1177.2
2023-11-30T18:39:32.133Z,1183.8
2023-11-30T18:41:15.832Z,1192.3
2023-11-30T18:42:59.489Z,1199.5
2023-11-30T18:44:43.081Z,1207.1
2023-11-30T18:46:26.973Z,1209.3
2023-11-30T18:48:10.634Z,1216.1
2023-11-30T18:49:54.291Z,1221.7
2023-11-30T18:51:38.307Z,1223.3
2023-11-30T18:53:21.618Z,1224
2023-11-30T18:55:05.477Z,1225.2
2023-11-30T18:56:48.970Z,1227.1
2023-11-30T18:58:32.896Z,1224.6
2023-11-30T19:00:16.561Z,1225.7
2023-11-30T19:02:00.263Z,1226
2023-11-30T19:03:43.979Z,1228.2
2023-11-30T19:05:27.776Z,1229.5
2023-11-30T19:07:11.459Z,1227.3
2023-11-30T19:08:55.256Z,1228
2023-11-30T19:10:38.594Z,1226.3
2023-11-30T19:12:22.490Z,1225
2023-11-30T19:14:06.025Z,1226.1
2023-11-30T19:15:49.702Z,1222.1
2023-11-30T19:17:33.579Z,1226.4
2023-11-30T19:19:17.383Z,1224.8
2023-11-30T19:21:01.135Z,1220.1
2023-11-30T19:22:44.696Z,1220.8
2023-11-30T19:24:28.534Z,1225.1
2023-11-30T19:26:11.907Z,1226.8
2023-11-30T19:27:55.731Z,1226.2
2023-11-30T19:29:39.560Z,1220.4
2023-11-30T19:31:23.319Z,1218.6
2023-11-30T19:33:06.874Z,1213.4
2023-11-30T19:34:50.405Z,1214.7
2023-11-30T19:36:34.450Z,1218.1
2023-11-30T19:38:18.132Z,1217.8
2023-11-30T19:40:01.754Z,1219.1
2023-11-30T19:41:45.520Z,1214.6
2023-11-30T19:43:28.929Z,1209.3
2023-11-30T19:45:12.887Z,1212.1
2023-11-30T19:46:56.459Z,1215.3
2023-11-30T19:48:40.339Z,1218.3
2023-11-30T19:50:24.069Z,1212.8
2023-11-30T19:52:07.663Z,1210
2023-11-30T19:53:51.262Z,1209.2
2023-11-30T19:55:35.300Z,1202.2
2023-11-30T19:57:18.541Z,1199.6
2023-11-30T19:59:02.605Z,1193.1
2023-11-30T20:00:46.131Z,1175.7
2023-11-30T20:02:29.871Z,1161.4
2023-11-30T20:04:13.639Z,1152.8
2023-11-30T20:05:57.343Z,1150.1
2023-11-30T20:07:40.944Z,1152.9
2023-11-30T20:09:24.559Z,1151.2
2023-11-30T20:11:08.212Z,1142.4
2023-11-30T20:12:52.001Z,1138
2023-11-30T20:14:35.917Z,1135.2
2023-11-30T20:16:19.612Z,1136.5
2023-11-30T20:18:03.165Z,1135.4
2023-11-30T20:19:46.877Z,1131.8
2023-11-30T20:21:30.614Z,1129.9
2023-11-30T20:23:14.286Z,1133.5
2023-11-30T20:24:58.101Z,1139.5
2023-11-30T20:26:41.754Z,1145.5
2023-11-30T20:28:25.362Z,1148.5
2023-11-30T20:30:09.300Z,1149.3
2023-11-30T20:31:52.605Z,1145.6
2023-11-30T20:33:36.294Z,1148.1
2023-11-30T20:35:20.011Z,1149.8
2023-11-30T20:37:03.738Z,1149.1
2023-11-30T20:38:47.400Z,1151.8
2023-11-30T20:40:31.226Z,1155.9
2023-11-30T20:42:14.918Z,1153.7
2023-11-30T20:43:58.528Z,1153.7
2023-11-30T20:45:42.472Z,1153.6
2023-11-30T20:47:26.303Z,1150
2023-11-30T20:49:09.779Z,1145.2
2023-11-30T20:50:53.454Z,1140.2
2023-11-30T20:52:37.016Z,1133
2023-11-30T20:54:20.887Z,1132.5
2023-11-30T20:56:04.552Z,1129.3
2023-11-30T20:57:48.267Z,1123.4
2023-11-30T20:59:31.938Z,1120.3
2023-11-30T21:01:15.906Z,1118
2023-11-30T21:02:59.539Z,1116.5
2023-11-30T21:04:43.066Z,1121.4
2023-11-30T21:06:26.669Z,1122
2023-11-30T21:08:10.547Z,1119.6
2023-11-30T21:09:54.084Z,1117.3
2023-11-30T21:11:38.054Z,1116.6
2023-11-30T21:13:21.571Z,1115.7
2023-11-30T21:15:05.205Z,1112
2023-11-30T21:16:48.864Z,1111.8
2023-11-30T21:18:32.869Z,1117.3
2023-11-30T21:20:16.625Z,1125.3
2023-11-30T21:22:00.164Z,1133.3
2023-11-30T21:23:43.676Z,1137.6
2023-11-30T21:25:27.534Z,1139
2023-11-30T21:27:11.287Z,1142.3
2023-11-30T21:28:55.088Z,1142.1
2023-11-30T21:30:38.663Z,1151.1
2023-11-30T21:32:22.504Z,1154.6
2023-11-30T21:34:05.906Z,1154.5
2023-11-30T21:35:49.961Z,1157
2023-11-30T21:37:33.534Z,1167.1
2023-11-30T21:39:17.193Z,1168.5
2023-11-30T21:41:00.776Z,1175
2023-11-30T21:42:44.664Z,1179.8
2023-11-30T21:44:28.192Z,1178.8
2023-11-30T21:46:12.000Z,1183.4
2023-11-30T21:47:55.811Z,1186.1
2023-11-30T21:49:39.569Z,1190.2
2023-11-30T21:51:23.194Z,1186.7
2023-11-30T21:53:06.696Z,1184.5
2023-11-30T21:54:50.420Z,1186.3
2023-11-30T21:56:34.175Z,1188.9
2023-11-30T21:58:17.817Z,1188.2
2023-11-30T22:00:01.438Z,1189.8
2023-11-30T22:01:45.261Z,1193.3
2023-11-30T22:03:29.115Z,1190.6
2023-11-30T22:05:12.761Z,1190.5
2023-11-30T22:06:56.351Z,1187.3
2023-11-30T22:08:40.231Z,1182.3
2023-11-30T22:10:23.859Z,1180.7
2023-11-30T22:12:07.340Z,1180.9
2023-11-30T22:13:51.090Z,1181.4
2023-11-30T22:15:34.944Z,1179.9
2023-11-30T22:17:18.535Z,1181.1
2023-11-30T22:19:02.257Z,1179.8
2023-11-30T22:20:45.828Z,1180.1